MDT,Max TemperatureF,Mean TemperatureF,Min TemperatureF,Max Dew PointF,MeanDew PointF,Min DewpointF,Max Humidity, Mean Humidity, Min Humidity, Max Sea Level PressureIn, Mean Sea Level PressureIn, Min Sea Level PressureIn, Max VisibilityMiles, Mean VisibilityMiles, Min VisibilityMiles, Max Wind SpeedMPH, Mean Wind SpeedMPH, Max Gust SpeedMPH,PrecipitationIn, CloudCover, Events, WindDirDegrees
2013-3-1,38,27,15,25,19,10,78,66,54,30.42,30.33,30.27,10,10,10,30,11,36,0.00,4,,295
2013-3-2,48,36,23,26,22,18,81,62,42,30.36,30.22,29.91,10,10,10,25,14,30,0.00,0,,249
2013-3-3,48,41,33,28,23,18,69,55,40,29.90,29.71,29.60,,,,33,17,41,0.00,3,,254
2013-3-4,37,24,10,21,13,4,88,68,47,30.34,29.90,29.59,10,10,10,29,17,46,T,5,Snow,327
2013-3-5,44,24,3,8,4,1,88,53,18,30.35,30.19,30.06,10,10,10,26,12,33,0.00,0,,227
2013-3-6,54,39,23,18,11,-1,58,39,19,30.01,29.86,29.72,10,10,10,30,13,36,0.00,0,,199
2013-3-7,52,39,26,26,20,14,75,50,24,29.96,29.85,29.69,10,10,10,26,8,33,0.00,2,,205
2013-3-8,52,37,22,26,21,14,92,57,22,29.90,29.75,29.58,10,10,10,17,7,22,0.00,2,,155
2013-3-9,30,24,17,27,22,13,100,84,68,30.14,29.79,29.53,10,4,0,29,16,35,0.04,8,Fog-Snow,356
2013-3-10,37,26,14,19,15,10,84,67,50,30.24,30.13,30.02,10,10,5,32,16,39,T,3,Snow,311
2013-3-11,39,25,11,28,21,14,100,75,49,30.11,30.00,29.88,10,5,0,36,17,41,0.16,6,Fog-Snow,313
2013-3-12,35,22,9,26,15,9,100,85,69,30.34,30.19,30.09,10,4,0,31,7,35,0.00,5,Fog,204
2013-3-13,46,35,24,29,26,19,81,65,49,30.29,30.23,30.18,10,10,10,32,13,37,0.00,0,,259
2013-3-14,56,44,31,28,25,22,64,47,30,30.28,30.17,30.01,10,10,10,25,13,31,0.00,1,,260
2013-3-15,58,47,36,28,23,19,59,41,23,29.98,29.87,29.80,10,10,10,40,21,47,0.00,1,,264
2013-3-16,50,39,28,29,21,9,79,54,21,29.89,29.80,29.69,10,10,10,37,15,43,0.00,1,,241
2013-3-17,44,32,20,24,14,3,75,53,30,29.78,29.61,29.44,10,10,10,51,28,63,T,1,,266
2013-3-18,34,26,17,17,7,3,56,46,35,29.92,29.88,29.80,10,10,10,43,26,56,T,3,Snow,280
2013-3-19,40,27,14,13,3,-7,88,52,15,30.27,30.09,29.86,10,10,10,38,18,47,T,0,,292
2013-3-20,49,32,14,25,13,1,88,53,18,30.25,29.96,29.67,10,10,10,35,17,39,0.00,2,,224
2013-3-21,39,28,16,30,21,9,89,62,35,29.88,29.62,29.49,10,10,10,39,17,45,T,4,Snow,248
2013-3-22,32,23,14,14,6,-1,74,51,27,29.89,29.81,29.75,10,10,10,26,13,32,T,5,Snow,314
2013-3-23,18,10,1,9,6,-1,86,73,59,30.25,30.00,29.80,10,7,1,21,10,24,T,7,Snow,27
2013-3-24,19,9,-1,12,5,-5,87,69,51,30.28,30.09,29.96,10,6,0,26,10,32,T,7,Snow,325
2013-3-25,30,16,1,7,3,-2,91,60,29,30.35,30.28,30.22,10,10,10,15,6,22,0.00,1,,290
2013-3-26,45,28,11,27,15,0,85,59,33,30.21,30.01,29.90,10,10,10,29,13,36,0.00,4,,232
2013-3-27,52,36,20,26,21,16,96,62,27,30.04,29.99,29.94,10,10,10,18,7,24,0.00,4,,252
2013-3-28,56,39,22,25,21,18,88,56,24,30.08,30.03,29.98,10,10,10,23,7,29,0.00,4,,205
2013-3-29,56,41,26,32,26,22,85,57,29,30.12,30.04,29.98,10,10,10,33,12,45,T,4,Rain,264
2013-3-30,55,38,21,28,23,16,92,60,28,30.17,30.06,29.96,10,10,10,41,15,47,0.00,2,,286
2013-3-31,60,40,19,24,14,2,91,51,10,30.12,29.99,29.90,10,10,10,29,13,36,0.00,0,,257